Time;durP1;ratioP1;P1;durP2;ratioP2;P2;SDS_P1;SDS_P2;PMS_P1;PMS_P2;Temp;Humidity;BMP_temperature;BMP_pressure;BME280_temperature;BME280_humidity;BME280_pressure;Samples;Min_cycle;Max_cycle;Signal;HPM_P1;HPM_P2
2022/09/17 00:01:09;;;;;;;2.50;1.05;;;22.90;42.10;;;;;;5042209;28;20033;-53
2022/09/17 00:03:35;;;;;;;1.52;0.60;;;22.90;42.20;;;;;;5046716;28;20047;-50
2022/09/17 00:06:04;;;;;;;2.95;0.82;;;22.90;42.20;;;;;;5047163;28;20032;-56
2022/09/17 00:08:31;;;;;;;2.92;0.85;;;22.90;42.20;;;;;;5048712;28;20083;-52
2022/09/17 00:10:57;;;;;;;2.05;0.70;;;22.90;42.30;;;;;;5034161;28;20053;-55
2022/09/17 00:13:23;;;;;;;3.25;1.00;;;22.90;42.30;;;;;;5040927;28;20044;-52
2022/09/17 00:15:51;;;;;;;2.78;0.70;;;22.80;42.30;;;;;;5044404;28;20025;-50
2022/09/17 00:18:17;;;;;;;2.65;1.00;;;22.80;42.30;;;;;;5047361;28;20117;-52
2022/09/17 00:20:45;;;;;;;2.65;0.80;;;22.80;42.30;;;;;;5043922;28;20025;-51
2022/09/17 00:23:12;;;;;;;2.42;1.00;;;22.80;42.40;;;;;;5047595;28;20044;-53
2022/09/17 00:25:43;;;;;;;1.85;0.80;;;22.80;42.40;;;;;;5045187;28;20029;-55
2022/09/17 00:28:09;;;;;;;2.38;0.90;;;22.80;42.40;;;;;;5047236;28;20432;-50
2022/09/17 00:30:47;;;;;;;2.58;0.98;;;22.80;42.50;;;;;;5041433;28;20025;-50
2022/09/17 00:33:15;;;;;;;3.08;0.98;;;22.80;42.50;;;;;;5045212;28;20040;-54
2022/09/17 00:35:42;;;;;;;1.90;0.80;;;22.80;42.50;;;;;;5046905;28;20121;-51
2022/09/17 00:38:08;;;;;;;3.20;1.10;;;22.80;42.50;;;;;;5046245;28;20119;-54
2022/09/17 00:40:34;;;;;;;2.83;0.95;;;22.80;42.50;;;;;;5045574;28;20100;-54
2022/09/17 00:43:00;;;;;;;3.55;0.80;;;22.80;42.50;;;;;;5045847;28;20030;-55
2022/09/17 00:45:27;;;;;;;1.40;0.63;;;22.80;42.60;;;;;;5042317;28;20036;-52
2022/09/17 00:48:02;;;;;;;2.35;0.70;;;22.80;42.60;;;;;;5045864;28;20448;-54
2022/09/17 00:50:45;;;;;;;2.55;0.93;;;22.80;42.70;;;;;;5044051;28;21320;-50
2022/09/17 00:53:18;;;;;;;3.17;1.00;;;22.80;42.70;;;;;;5044947;28;20049;-56
2022/09/17 00:55:56;;;;;;;4.53;0.90;;;22.70;42.70;;;;;;5043845;28;20040;-49
2022/09/17 00:58:23;;;;;;;2.70;1.00;;;22.80;42.70;;;;;;5041228;28;20029;-53
2022/09/17 01:00:49;;;;;;;1.85;0.75;;;22.80;42.70;;;;;;5042706;28;20155;-48
2022/09/17 01:03:15;;;;;;;2.55;0.95;;;22.80;42.80;;;;;;5046772;28;20123;-51
2022/09/17 01:05:59;;;;;;;3.15;1.10;;;22.80;42.80;;;;;;5046195;28;20037;-50
2022/09/17 01:08:48;;;;;;;2.75;0.60;;;22.70;42.80;;;;;;5039036;28;20048;-50
2022/09/17 01:11:51;;;;;;;3.33;0.82;;;22.70;42.80;;;;;;5044633;28;20040;-52
2022/09/17 01:14:34;;;;;;;2.22;1.02;;;22.70;42.80;;;;;;5048127;28;20043;-54
2022/09/17 01:17:12;;;;;;;2.55;1.05;;;22.70;42.80;;;;;;5045801;28;20127;-54
2022/09/17 01:20:00;;;;;;;2.40;0.88;;;22.70;42.90;;;;;;5050189;28;20114;-49
2022/09/17 01:23:03;;;;;;;3.38;0.82;;;22.70;42.90;;;;;;5050126;28;20343;-53
2022/09/17 01:25:55;;;;;;;2.28;0.85;;;22.70;42.90;;;;;;5049858;28;20449;-52
2022/09/17 01:28:39;;;;;;;3.42;1.08;;;22.70;42.90;;;;;;5045303;28;20403;-50
2022/09/17 01:31:25;;;;;;;3.30;1.00;;;22.70;43.00;;;;;;5048652;28;20171;-51
2022/09/17 01:34:15;;;;;;;2.03;0.85;;;22.70;43.00;;;;;;5043130;28;20369;-51
2022/09/17 01:36:49;;;;;;;1.42;0.77;;;22.70;43.10;;;;;;5050792;28;20033;-53
2022/09/17 01:39:26;;;;;;;2.25;0.75;;;22.60;43.00;;;;;;5045782;28;20033;-54
2022/09/17 01:42:13;;;;;;;2.55;0.70;;;22.70;43.20;;;;;;5047767;28;20120;-51
2022/09/17 01:44:50;;;;;;;2.90;0.98;;;22.70;43.20;;;;;;5046543;28;20021;-54
2022/09/17 01:47:26;;;;;;;2.22;0.70;;;22.60;43.20;;;;;;5050326;28;20082;-55
2022/09/17 01:49:56;;;;;;;2.90;0.80;;;22.60;43.20;;;;;;5047618;28;20407;-52
2022/09/17 01:52:24;;;;;;;2.45;0.80;;;22.70;43.30;;;;;;5044833;28;20475;-50
2022/09/17 01:54:55;;;;;;;2.83;0.80;;;22.60;43.30;;;;;;5049918;28;20416;-54
2022/09/17 01:57:36;;;;;;;3.38;1.10;;;22.60;43.30;;;;;;5047538;28;20492;-54
2022/09/17 02:00:16;;;;;;;1.88;0.80;;;22.60;43.30;;;;;;5047717;28;20038;-50
2022/09/17 02:02:54;;;;;;;2.40;0.80;;;22.60;43.30;;;;;;5045146;28;20048;-54
2022/09/17 02:05:27;;;;;;;2.65;0.88;;;22.60;43.30;;;;;;5048803;28;20329;-53
2022/09/17 02:07:58;;;;;;;2.20;0.85;;;22.60;44.00;;;;;;5050129;28;20049;-54
2022/09/17 02:10:30;;;;;;;1.50;0.60;;;22.60;43.40;;;;;;5046197;28;20040;-53
2022/09/17 02:13:09;;;;;;;2.20;0.60;;;22.60;43.40;;;;;;5042977;28;20042;-52
2022/09/17 02:15:41;;;;;;;2.67;1.00;;;22.60;43.40;;;;;;5049057;28;20057;-51
2022/09/17 02:18:42;;;;;;;3.85;1.20;;;22.60;43.40;;;;;;5047782;28;20030;-50
2022/09/17 02:21:15;;;;;;;2.05;0.90;;;22.60;43.40;;;;;;5048615;28;20460;-54
2022/09/17 02:24:14;;;;;;;2.33;0.80;;;22.60;43.40;;;;;;5047249;28;20460;-55
2022/09/17 02:26:45;;;;;;;2.42;0.77;;;22.60;43.40;;;;;;5036147;28;20049;-49
2022/09/17 02:29:35;;;;;;;2.53;0.80;;;22.60;43.50;;;;;;5042027;28;20448;-56
2022/09/17 02:32:01;;;;;;;3.08;0.93;;;22.50;43.50;;;;;;5048624;28;20064;-53
2022/09/17 02:34:28;;;;;;;3.75;0.98;;;22.60;43.60;;;;;;5048112;28;20081;-51
2022/09/17 02:36:56;;;;;;;2.58;0.90;;;22.60;43.60;;;;;;5048118;28;20444;-52
2022/09/17 02:39:22;;;;;;;4.22;1.10;;;22.60;43.60;;;;;;5044555;28;20033;-53
2022/09/17 02:42:11;;;;;;;2.28;0.70;;;22.60;43.60;;;;;;5047953;28;20029;-55
2022/09/17 02:45:04;;;;;;;2.90;0.82;;;22.60;43.60;;;;;;5039619;28;20067;-54
2022/09/17 02:47:41;;;;;;;2.15;1.08;;;22.50;43.60;;;;;;5045948;28;20124;-53
2022/09/17 02:50:15;;;;;;;2.63;0.80;;;22.50;43.60;;;;;;5042453;28;20016;-53
2022/09/17 02:53:06;;;;;;;1.63;0.68;;;22.50;43.60;;;;;;5048583;28;20041;-53
2022/09/17 02:55:53;;;;;;;1.52;0.80;;;22.50;43.60;;;;;;5043505;28;20040;-49
2022/09/17 02:58:31;;;;;;;1.60;0.60;;;22.50;43.60;;;;;;5044664;28;20417;-52
2022/09/17 03:01:03;;;;;;;4.05;0.90;;;22.50;43.60;;;;;;5045331;28;20117;-53
2022/09/17 03:03:40;;;;;;;3.17;1.15;;;22.50;43.60;;;;;;5048433;28;20037;-51
2022/09/17 03:06:06;;;;;;;1.92;0.88;;;22.50;43.60;;;;;;5049140;28;20444;-50
2022/09/17 03:08:37;;;;;;;2.35;0.85;;;22.50;43.60;;;;;;5045702;28;20119;-55
2022/09/17 03:11:04;;;;;;;2.60;0.85;;;22.50;43.60;;;;;;5046209;28;20032;-48
2022/09/17 03:13:30;;;;;;;3.08;1.00;;;22.50;43.60;;;;;;5046678;28;20128;-48
2022/09/17 03:15:56;;;;;;;2.50;0.70;;;22.50;43.60;;;;;;5043929;28;20171;-49
2022/09/17 03:18:22;;;;;;;2.47;0.90;;;22.50;43.60;;;;;;5046553;28;20028;-49
2022/09/17 03:20:48;;;;;;;2.38;0.88;;;22.50;43.60;;;;;;5046178;28;20021;-51
2022/09/17 03:23:15;;;;;;;4.80;1.10;;;22.50;43.60;;;;;;5047796;28;20487;-51
2022/09/17 03:25:40;;;;;;;3.28;0.90;;;22.50;43.60;;;;;;5043346;28;20029;-52
2022/09/17 03:28:09;;;;;;;1.42;0.70;;;22.50;43.60;;;;;;5045783;28;20043;-52
2022/09/17 03:30:35;;;;;;;3.33;0.80;;;22.50;43.60;;;;;;5042916;28;20495;-48
2022/09/17 03:33:01;;;;;;;3.72;1.25;;;22.50;43.60;;;;;;5049102;28;20452;-55
2022/09/17 03:35:27;;;;;;;2.33;0.85;;;22.50;43.70;;;;;;5044376;28;20052;-51
2022/09/17 03:37:53;;;;;;;2.05;0.60;;;22.40;43.50;;;;;;5048289;28;20086;-54
2022/09/17 03:40:18;;;;;;;1.63;0.63;;;22.50;43.60;;;;;;5046395;28;20083;-53
2022/09/17 03:42:44;;;;;;;2.42;1.00;;;22.50;43.60;;;;;;5042546;28;20113;-51
2022/09/17 03:45:10;;;;;;;2.45;0.88;;;22.40;43.50;;;;;;5043879;28;20053;-52
2022/09/17 03:47:37;;;;;;;2.22;0.50;;;22.40;43.50;;;;;;5047317;28;20052;-55
2022/09/17 03:50:04;;;;;;;1.88;0.80;;;22.40;43.50;;;;;;5045992;28;20017;-51
2022/09/17 03:52:30;;;;;;;2.15;0.88;;;22.50;43.50;;;;;;5041863;28;20045;-51
2022/09/17 03:54:56;;;;;;;2.00;0.65;;;22.50;43.50;;;;;;5042091;28;20117;-51
2022/09/17 03:57:22;;;;;;;2.92;0.93;;;22.40;43.40;;;;;;5047283;28;20025;-50
2022/09/17 03:59:48;;;;;;;2.50;0.80;;;22.40;43.40;;;;;;5047335;28;20037;-51
2022/09/17 04:02:14;;;;;;;4.15;0.90;;;22.40;43.40;;;;;;5043395;28;20027;-55
2022/09/17 04:04:40;;;;;;;2.67;0.90;;;22.50;43.40;;;;;;5045361;28;20352;-50
2022/09/17 04:07:05;;;;;;;2.22;0.70;;;22.40;43.40;;;;;;5047225;28;20052;-51
2022/09/17 04:09:31;;;;;;;2.22;0.88;;;22.40;43.40;;;;;;5047220;28;20116;-54
2022/09/17 04:11:57;;;;;;;3.35;1.10;;;22.40;43.40;;;;;;5047280;28;20060;-53
2022/09/17 04:14:23;;;;;;;2.63;0.90;;;22.40;43.40;;;;;;5046320;28;20053;-51
2022/09/17 04:16:49;;;;;;;8.55;3.00;;;22.40;43.40;;;;;;5044457;28;20057;-52
2022/09/17 04:19:15;;;;;;;8.50;2.83;;;22.40;43.40;;;;;;5047379;28;20020;-52
2022/09/17 04:21:41;;;;;;;7.47;2.05;;;22.40;43.40;;;;;;5045546;28;21650;-53
2022/09/17 04:24:06;;;;;;;6.03;1.60;;;22.40;43.40;;;;;;5038787;28;20033;-54
2022/09/17 04:26:32;;;;;;;5.55;1.50;;;22.40;43.30;;;;;;5043299;28;20351;-54
2022/09/17 04:28:58;;;;;;;3.35;1.42;;;22.40;43.30;;;;;;5047461;28;20025;-53
2022/09/17 04:31:25;;;;;;;3.83;1.30;;;22.40;43.30;;;;;;5041616;28;20034;-52
2022/09/17 04:33:52;;;;;;;4.93;1.40;;;22.40;43.30;;;;;;5042172;28;20064;-54
2022/09/17 04:36:18;;;;;;;5.18;1.88;;;22.40;43.30;;;;;;5044984;28;20045;-50
2022/09/17 04:38:47;;;;;;;4.47;1.35;;;22.40;43.30;;;;;;5048294;28;20074;-54
2022/09/17 04:41:13;;;;;;;3.33;1.10;;;22.40;43.30;;;;;;5046367;28;20029;-53
2022/09/17 04:43:39;;;;;;;3.88;1.27;;;22.40;43.20;;;;;;5044561;28;20223;-54
2022/09/17 04:46:05;;;;;;;4.68;1.48;;;22.40;43.20;;;;;;5044245;28;20507;-54
2022/09/17 04:48:31;;;;;;;2.88;1.20;;;22.30;43.20;;;;;;5050272;28;20029;-52
2022/09/17 04:50:57;;;;;;;3.00;1.00;;;22.30;43.10;;;;;;5044010;28;20098;-53
2022/09/17 04:53:23;;;;;;;2.85;0.93;;;22.30;43.10;;;;;;5048527;28;20262;-50
2022/09/17 04:55:49;;;;;;;2.63;0.93;;;22.30;43.10;;;;;;5049381;28;20033;-54
2022/09/17 04:58:14;;;;;;;3.83;1.00;;;22.30;43.10;;;;;;5043699;28;20059;-53
2022/09/17 05:00:41;;;;;;;3.75;1.10;;;22.30;43.10;;;;;;5047975;28;20158;-54
2022/09/17 05:03:07;;;;;;;2.85;0.90;;;22.30;43.10;;;;;;5049244;28;20029;-51
2022/09/17 05:05:33;;;;;;;2.55;1.00;;;22.30;43.10;;;;;;5046842;28;20029;-50
2022/09/17 05:07:59;;;;;;;2.13;0.90;;;22.30;43.10;;;;;;5045272;28;20048;-51
2022/09/17 05:10:25;;;;;;;4.22;1.02;;;22.30;43.10;;;;;;5045018;28;20406;-48
2022/09/17 05:12:53;;;;;;;1.92;0.85;;;22.30;43.00;;;;;;5050538;28;20048;-49
2022/09/17 05:15:19;;;;;;;3.42;1.25;;;22.30;43.10;;;;;;5046875;28;20021;-51
2022/09/17 05:17:45;;;;;;;2.45;0.98;;;22.30;43.00;;;;;;5046501;28;20041;-55
2022/09/17 05:20:12;;;;;;;3.03;1.02;;;22.30;43.00;;;;;;5042609;28;20455;-53
2022/09/17 05:22:50;;;;;;;2.78;0.88;;;22.30;43.00;;;;;;5047904;28;20021;-51
2022/09/17 05:25:18;;;;;;;2.00;0.70;;;22.30;43.10;;;;;;5042868;28;20039;-53
2022/09/17 05:27:44;;;;;;;3.78;1.30;;;22.30;43.10;;;;;;5049321;28;20025;-51
2022/09/17 05:30:10;;;;;;;2.55;0.88;;;22.30;43.10;;;;;;5047741;28;20357;-50
2022/09/17 05:32:37;;;;;;;2.45;1.02;;;22.30;43.00;;;;;;5048654;28;20072;-50
2022/09/17 05:35:04;;;;;;;2.40;0.80;;;22.30;43.00;;;;;;5040902;28;20330;-51
2022/09/17 05:37:30;;;;;;;2.35;0.65;;;22.20;43.00;;;;;;5049068;28;20029;-52
2022/09/17 05:39:56;;;;;;;2.28;0.95;;;22.30;43.00;;;;;;5049083;28;20340;-51
2022/09/17 05:42:22;;;;;;;3.90;1.20;;;22.30;43.00;;;;;;5044992;28;20039;-54
2022/09/17 05:44:48;;;;;;;3.28;1.15;;;22.30;43.00;;;;;;5048319;28;20350;-52
2022/09/17 05:47:13;;;;;;;1.90;0.65;;;22.20;42.90;;;;;;5042897;28;20512;-54
2022/09/17 05:49:39;;;;;;;2.03;0.75;;;22.30;43.00;;;;;;5045236;28;20163;-53
2022/09/17 05:52:05;;;;;;;1.48;0.77;;;22.20;42.90;;;;;;5045964;28;20399;-51
2022/09/17 05:54:31;;;;;;;1.95;0.75;;;22.20;42.90;;;;;;5048411;28;20030;-53
2022/09/17 05:56:57;;;;;;;2.80;0.90;;;22.20;43.00;;;;;;5045522;28;20037;-50
2022/09/17 05:59:22;;;;;;;2.83;0.80;;;22.20;43.60;;;;;;5048895;28;20045;-53
2022/09/17 06:01:49;;;;;;;1.70;0.80;;;22.20;43.00;;;;;;5044780;28;20035;-50
2022/09/17 06:04:16;;;;;;;1.88;0.75;;;22.30;43.00;;;;;;5044175;28;20361;-52
2022/09/17 06:06:42;;;;;;;1.85;0.80;;;22.20;43.00;;;;;;5043560;28;20032;-55
2022/09/17 06:09:09;;;;;;;2.30;0.80;;;22.20;42.90;;;;;;5047962;28;20118;-53
2022/09/17 06:11:35;;;;;;;2.95;1.08;;;22.20;43.00;;;;;;5044539;28;20029;-50
2022/09/17 06:14:02;;;;;;;2.08;0.75;;;22.20;42.90;;;;;;5048547;28;20044;-53
2022/09/17 06:16:28;;;;;;;1.77;0.85;;;22.20;42.90;;;;;;5040660;28;20029;-52
2022/09/17 06:18:54;;;;;;;1.60;0.73;;;22.20;42.90;;;;;;5045177;28;20039;-50
2022/09/17 06:21:21;;;;;;;3.10;0.93;;;22.20;42.90;;;;;;5042524;28;20060;-51
2022/09/17 06:23:51;;;;;;;3.47;0.90;;;22.20;42.90;;;;;;5044580;28;20419;-49
2022/09/17 06:26:17;;;;;;;2.30;0.80;;;22.20;42.90;;;;;;5047754;28;20024;-54
2022/09/17 06:28:44;;;;;;;2.20;0.77;;;22.20;43.00;;;;;;5046972;28;20024;-53
2022/09/17 06:31:11;;;;;;;3.55;0.70;;;22.20;42.90;;;;;;5044166;28;20017;-49
2022/09/17 06:33:37;;;;;;;2.53;1.17;;;22.20;42.90;;;;;;5042261;28;20042;-52
2022/09/17 06:36:06;;;;;;;2.05;0.75;;;22.20;42.90;;;;;;5046554;28;20021;-53
2022/09/17 06:38:34;;;;;;;2.03;0.70;;;22.20;42.90;;;;;;5030871;28;20033;-51
2022/09/17 06:40:59;;;;;;;2.13;0.90;;;22.20;42.90;;;;;;5038466;28;20029;-49
2022/09/17 06:43:25;;;;;;;1.55;0.60;;;22.20;42.90;;;;;;5036850;28;20099;-50
2022/09/17 06:45:55;;;;;;;2.53;0.80;;;22.20;42.90;;;;;;5037693;28;20029;-49
2022/09/17 06:48:22;;;;;;;2.55;0.75;;;22.20;42.90;;;;;;5039920;28;20119;-48
2022/09/17 06:50:49;;;;;;;2.80;0.82;;;22.20;42.90;;;;;;5045031;28;20028;-50
2022/09/17 06:53:15;;;;;;;2.05;0.70;;;22.20;42.90;;;;;;5039812;28;20073;-50
2022/09/17 06:55:41;;;;;;;2.90;0.95;;;22.20;42.90;;;;;;5042068;28;20071;-54
2022/09/17 06:58:07;;;;;;;1.83;0.70;;;22.30;43.00;;;;;;5048494;28;20336;-53
2022/09/17 07:00:33;;;;;;;2.88;0.75;;;22.20;43.00;;;;;;5035953;28;20021;-51
2022/09/17 07:03:00;;;;;;;1.48;0.63;;;22.20;43.60;;;;;;5042526;28;20087;-55
2022/09/17 07:05:28;;;;;;;2.10;0.75;;;22.20;43.00;;;;;;5035540;28;20445;-49
2022/09/17 07:07:55;;;;;;;2.40;0.90;;;22.20;43.00;;;;;;5043291;28;20056;-50
2022/09/17 07:10:25;;;;;;;2.28;0.85;;;22.30;43.10;;;;;;5047829;28;20063;-49
2022/09/17 07:12:53;;;;;;;4.13;0.88;;;22.30;43.10;;;;;;5040503;28;20044;-48
2022/09/17 07:15:19;;;;;;;1.65;0.65;;;22.20;43.10;;;;;;5047243;28;20029;-48
2022/09/17 07:17:45;;;;;;;2.63;0.80;;;22.20;43.10;;;;;;5043261;28;20040;-47
2022/09/17 07:20:11;;;;;;;1.60;0.50;;;22.30;43.30;;;;;;5048548;28;20118;-47
2022/09/17 07:22:38;;;;;;;1.55;0.75;;;22.30;43.30;;;;;;5040981;28;20027;-49
2022/09/17 07:25:04;;;;;;;2.15;0.70;;;22.30;43.40;;;;;;5046368;28;20094;-53
2022/09/17 07:27:31;;;;;;;4.38;0.77;;;22.30;43.40;;;;;;5044029;28;20033;-49
2022/09/17 07:29:57;;;;;;;1.85;0.90;;;22.30;43.40;;;;;;5037809;28;20036;-53
2022/09/17 07:32:23;;;;;;;2.08;0.50;;;22.30;43.40;;;;;;5036829;28;20045;-50
2022/09/17 07:34:49;;;;;;;2.78;0.70;;;22.30;43.40;;;;;;5049741;28;20091;-49
2022/09/17 07:37:15;;;;;;;2.13;0.80;;;22.30;43.40;;;;;;5036530;28;20401;-48
2022/09/17 07:39:42;;;;;;;1.65;0.60;;;22.30;43.50;;;;;;5044352;28;20047;-50
2022/09/17 07:42:09;;;;;;;1.75;0.65;;;22.30;43.50;;;;;;5047955;28;20115;-52
2022/09/17 07:44:34;;;;;;;2.80;0.70;;;22.30;43.50;;;;;;5043373;28;20400;-53
2022/09/17 07:47:00;;;;;;;4.60;0.70;;;22.30;43.50;;;;;;5047459;28;20016;-52
2022/09/17 07:49:26;;;;;;;1.83;0.73;;;22.30;43.50;;;;;;5044912;28;20353;-47
2022/09/17 07:51:53;;;;;;;2.30;0.80;;;22.30;43.50;;;;;;5047522;28;20029;-48
2022/09/17 07:54:19;;;;;;;3.05;0.90;;;22.30;43.60;;;;;;5039741;28;20036;-50
2022/09/17 07:56:45;;;;;;;1.48;0.55;;;22.30;43.50;;;;;;5042831;28;20341;-50
2022/09/17 07:59:11;;;;;;;4.40;0.70;;;22.30;43.50;;;;;;5044999;28;20028;-51
2022/09/17 08:01:38;;;;;;;2.55;0.73;;;22.30;43.50;;;;;;5044669;28;20345;-53
2022/09/17 08:04:04;;;;;;;3.53;0.60;;;22.30;43.50;;;;;;5046588;28;20045;-52
2022/09/17 08:06:30;;;;;;;1.20;0.60;;;22.30;43.50;;;;;;5044308;28;20036;-49
2022/09/17 08:08:58;;;;;;;1.27;0.40;;;22.30;43.50;;;;;;5039715;28;20104;-48
2022/09/17 08:11:29;;;;;;;2.25;0.70;;;22.30;43.50;;;;;;5047935;28;20392;-49
2022/09/17 08:13:55;;;;;;;4.18;0.90;;;22.30;43.60;;;;;;5043815;28;20444;-54
2022/09/17 08:16:33;;;;;;;3.30;0.93;;;22.30;43.60;;;;;;5038556;28;20032;-51
2022/09/17 08:19:00;;;;;;;3.22;0.65;;;22.40;43.60;;;;;;5042421;28;20020;-53
2022/09/17 08:21:25;;;;;;;1.48;0.50;;;22.30;43.50;;;;;;5031328;28;20025;-48
2022/09/17 08:23:51;;;;;;;1.70;0.50;;;22.40;43.60;;;;;;5031980;28;20491;-51
2022/09/17 08:26:21;;;;;;;2.65;0.80;;;22.40;43.50;;;;;;5031998;28;20021;-52
2022/09/17 08:28:55;;;;;;;2.45;0.80;;;22.40;43.40;;;;;;5029282;28;20091;-51
2022/09/17 08:31:23;;;;;;;2.78;0.50;;;22.40;43.30;;;;;;5041117;28;20027;-50
2022/09/17 08:33:49;;;;;;;1.77;0.70;;;22.40;43.20;;;;;;5052932;28;20041;-51
2022/09/17 08:36:17;;;;;;;1.23;0.60;;;22.40;43.10;;;;;;5035014;28;20032;-53
2022/09/17 08:38:43;;;;;;;2.20;0.75;;;22.40;43.00;;;;;;5034747;28;20036;-52
2022/09/17 08:41:09;;;;;;;1.73;0.60;;;22.40;43.00;;;;;;5034265;28;20029;-53
2022/09/17 08:44:05;;;;;;;2.95;0.80;;;22.40;42.90;;;;;;5034750;28;20030;-52
2022/09/17 08:46:36;;;;;;;3.80;1.23;;;22.40;42.80;;;;;;5045235;28;20057;-49
2022/09/17 08:49:16;;;;;;;3.03;0.80;;;22.40;42.80;;;;;;5054488;28;20037;-52
2022/09/17 08:52:12;;;;;;;1.23;0.47;;;22.40;42.70;;;;;;5046484;28;20091;-50
2022/09/17 08:54:53;;;;;;;3.17;0.65;;;22.40;42.60;;;;;;5034903;28;20052;-53
2022/09/17 08:57:28;;;;;;;1.73;0.60;;;22.40;42.60;;;;;;5038799;28;20083;-54
2022/09/17 09:00:15;;;;;;;2.25;0.60;;;22.40;42.50;;;;;;5040646;28;20038;-55
2022/09/17 09:03:03;;;;;;;2.72;0.77;;;22.40;42.40;;;;;;5034670;28;20087;-52
2022/09/17 09:05:55;;;;;;;4.47;0.75;;;22.50;42.30;;;;;;5042270;28;20033;-53
2022/09/17 09:08:35;;;;;;;1.45;0.57;;;22.40;42.30;;;;;;5043895;28;20044;-53
2022/09/17 09:11:05;;;;;;;2.03;0.57;;;22.40;42.40;;;;;;5042704;28;20223;-52
2022/09/17 09:13:38;;;;;;;2.20;0.80;;;22.50;42.60;;;;;;5041313;28;20726;-49
2022/09/17 09:16:25;;;;;;;1.67;0.60;;;22.50;42.70;;;;;;5040023;28;20063;-51
2022/09/17 09:18:58;;;;;;;3.42;0.55;;;22.50;43.30;;;;;;5038298;28;20365;-49
2022/09/17 09:21:32;;;;;;;1.48;0.50;;;22.50;42.70;;;;;;5046641;28;20104;-50
2022/09/17 09:24:19;;;;;;;3.72;0.75;;;22.50;42.70;;;;;;5042620;28;20033;-48
2022/09/17 09:27:04;;;;;;;1.88;0.47;;;22.50;42.70;;;;;;5038682;28;20040;-53
2022/09/17 09:29:51;;;;;;;1.92;0.60;;;22.50;42.80;;;;;;5037860;28;20029;-54
2022/09/17 09:32:43;;;;;;;1.15;0.55;;;22.60;42.90;;;;;;5043074;28;20045;-52
2022/09/17 09:35:28;;;;;;;1.65;0.50;;;22.60;42.90;;;;;;5043048;28;20045;-52
2022/09/17 09:38:13;;;;;;;1.77;0.65;;;22.60;43.00;;;;;;5042314;28;20028;-51
2022/09/17 09:40:54;;;;;;;1.83;0.70;;;22.60;43.10;;;;;;5048370;28;20032;-51
2022/09/17 09:43:28;;;;;;;3.60;0.70;;;22.60;43.30;;;;;;5037982;28;20030;-52
2022/09/17 09:46:08;;;;;;;2.83;0.60;;;22.60;43.40;;;;;;5042894;28;20055;-52
2022/09/17 09:49:00;;;;;;;4.78;0.65;;;22.70;43.60;;;;;;5049898;28;20033;-54
2022/09/17 09:51:59;;;;;;;2.10;0.50;;;22.70;43.60;;;;;;5041377;28;20551;-49
2022/09/17 09:54:44;;;;;;;1.92;0.47;;;22.70;43.70;;;;;;5047663;28;20065;-52
2022/09/17 09:57:17;;;;;;;1.73;0.60;;;22.70;43.80;;;;;;5048725;28;20017;-49
2022/09/17 09:59:43;;;;;;;2.40;0.57;;;22.80;43.90;;;;;;5040300;28;20037;-50
2022/09/17 10:02:10;;;;;;;1.83;0.60;;;22.80;43.90;;;;;;5047191;28;20031;-51
2022/09/17 10:04:37;;;;;;;1.27;0.50;;;22.80;44.00;;;;;;5045921;28;20472;-55
2022/09/17 10:07:07;;;;;;;1.45;0.50;;;22.80;44.00;;;;;;5050076;28;20107;-55
2022/09/17 10:09:35;;;;;;;3.60;0.70;;;22.80;44.00;;;;;;5045242;28;20040;-55
2022/09/17 10:12:15;;;;;;;1.15;0.50;;;22.80;44.00;;;;;;5041930;28;20040;-52
2022/09/17 10:14:44;;;;;;;2.20;0.45;;;22.90;44.10;;;;;;5031269;28;20036;-49
2022/09/17 10:17:15;;;;;;;1.33;0.45;;;22.90;44.10;;;;;;5050013;28;20039;-49
2022/09/17 10:19:43;;;;;;;2.97;0.57;;;22.90;44.00;;;;;;5047558;28;20085;-49
2022/09/17 10:22:21;;;;;;;0.60;0.32;;;22.90;44.00;;;;;;5046324;28;20025;-48
2022/09/17 10:24:48;;;;;;;1.10;0.30;;;22.90;43.80;;;;;;5047485;28;20040;-49
2022/09/17 10:27:17;;;;;;;1.38;0.60;;;22.90;43.80;;;;;;5045530;28;20021;-47
2022/09/17 10:29:48;;;;;;;1.35;0.40;;;22.90;43.70;;;;;;5041548;28;20030;-52
2022/09/17 10:32:15;;;;;;;1.17;0.50;;;22.90;43.70;;;;;;5045328;28;20056;-49
2022/09/17 10:34:56;;;;;;;0.82;0.40;;;22.90;43.70;;;;;;5036882;28;20044;-49
2022/09/17 10:37:43;;;;;;;0.90;0.30;;;22.90;43.80;;;;;;5043955;28;20408;-48
2022/09/17 10:40:18;;;;;;;2.17;0.63;;;22.90;43.90;;;;;;5056980;28;20029;-51
2022/09/17 10:43:10;;;;;;;2.13;0.60;;;22.90;43.90;;;;;;5049521;28;20044;-50
2022/09/17 10:45:39;;;;;;;2.78;0.50;;;22.90;44.00;;;;;;5039498;28;20396;-50
2022/09/17 10:48:13;;;;;;;1.33;0.50;;;22.90;44.00;;;;;;5045324;28;20036;-49
2022/09/17 10:50:39;;;;;;;0.65;0.32;;;22.90;43.90;;;;;;5042856;28;20061;-48
2022/09/17 10:53:14;;;;;;;2.10;0.40;;;22.90;43.80;;;;;;5036589;28;20401;-50
2022/09/17 10:56:00;;;;;;;2.17;0.40;;;22.90;43.70;;;;;;5035939;28;20116;-50
2022/09/17 10:58:35;;;;;;;0.95;0.30;;;22.90;43.60;;;;;;5042273;28;20036;-52
2022/09/17 11:01:29;;;;;;;1.42;0.40;;;22.90;43.60;;;;;;5039649;28;20035;-48
2022/09/17 11:04:22;;;;;;;0.65;0.20;;;22.90;43.50;;;;;;5056206;28;20102;-51
2022/09/17 11:07:04;;;;;;;1.10;0.40;;;22.90;43.50;;;;;;5045581;28;20049;-53
2022/09/17 11:09:55;;;;;;;0.90;0.30;;;22.90;43.50;;;;;;5033637;28;20107;-54
2022/09/17 11:12:45;;;;;;;0.82;0.40;;;22.90;43.50;;;;;;5036334;28;20079;-48
2022/09/17 11:15:29;;;;;;;1.23;0.40;;;22.90;43.50;;;;;;5035082;28;20040;-51
2022/09/17 11:18:13;;;;;;;1.00;0.40;;;22.90;43.60;;;;;;5033829;28;20037;-50
2022/09/17 11:21:00;;;;;;;0.70;0.30;;;22.90;43.60;;;;;;5054844;28;20099;-51
2022/09/17 11:23:40;;;;;;;0.57;0.30;;;22.90;43.70;;;;;;5048046;28;20033;-51
2022/09/17 11:26:10;;;;;;;0.82;0.50;;;22.90;43.70;;;;;;5038726;28;20034;-50
2022/09/17 11:28:39;;;;;;;1.20;0.40;;;22.80;43.70;;;;;;5029297;28;20028;-50
2022/09/17 11:31:10;;;;;;;1.50;0.47;;;22.90;43.70;;;;;;5042833;28;20033;-49
2022/09/17 11:33:36;;;;;;;1.92;0.47;;;22.90;43.70;;;;;;5034017;28;20123;-51
2022/09/17 11:36:11;;;;;;;1.17;0.60;;;22.90;43.70;;;;;;5033916;28;20053;-51
2022/09/17 11:38:42;;;;;;;1.55;0.30;;;22.90;43.60;;;;;;5033574;28;20108;-48
2022/09/17 11:41:26;;;;;;;0.68;0.20;;;22.90;43.50;;;;;;5034084;28;20345;-49
2022/09/17 11:44:16;;;;;;;0.65;0.38;;;22.90;43.50;;;;;;5037876;28;20041;-51
2022/09/17 11:47:10;;;;;;;1.73;0.40;;;22.90;44.50;;;;;;5039753;28;20029;-50
2022/09/17 11:50:00;;;;;;;0.93;0.45;;;22.90;44.20;;;;;;5032484;28;20049;-50
2022/09/17 11:52:32;;;;;;;4.30;0.50;;;22.90;44.40;;;;;;5038832;28;20468;-47
2022/09/17 11:55:43;;;;;;;1.15;0.50;;;23.00;44.80;;;;;;5036587;28;20107;-54
2022/09/17 11:58:16;;;;;;;3.50;1.13;;;23.00;44.70;;;;;;5031667;28;20068;-57
2022/09/17 12:01:00;;;;;;;1.95;0.40;;;23.10;44.50;;;;;;5036783;28;20034;-63
2022/09/17 12:03:34;;;;;;;4.13;0.73;;;23.10;44.30;;;;;;5036311;28;20360;-61
2022/09/17 12:06:08;;;;;;;3.88;0.60;;;23.10;44.20;;;;;;5035521;28;20022;-61
2022/09/17 12:08:56;;;;;;;2.17;0.70;;;23.20;44.10;;;;;;5037200;28;20060;-58
2022/09/17 12:11:54;;;;;;;2.95;0.60;;;23.30;43.90;;;;;;5033376;28;20033;-54
2022/09/17 12:14:28;;;;;;;4.90;0.77;;;23.40;43.70;;;;;;5034797;28;20048;-56
2022/09/17 12:16:59;;;;;;;3.85;0.73;;;23.50;43.50;;;;;;5030420;28;20067;-56
2022/09/17 12:19:41;;;;;;;1.75;0.60;;;23.60;43.30;;;;;;5040623;28;20437;-51
2022/09/17 12:22:10;;;;;;;1.38;0.60;;;23.70;43.20;;;;;;5037775;28;20025;-65
2022/09/17 12:24:37;;;;;;;1.83;0.50;;;23.80;43.10;;;;;;5029473;28;20103;-55
2022/09/17 12:27:25;;;;;;;4.07;0.60;;;23.90;43.00;;;;;;5033798;28;20046;-58
2022/09/17 12:30:10;;;;;;;2.50;0.60;;;24.10;42.80;;;;;;5037583;28;20448;-60
2022/09/17 12:33:01;;;;;;;2.05;0.75;;;24.10;42.50;;;;;;5032384;28;20403;-57
2022/09/17 12:36:01;;;;;;;1.77;0.60;;;24.20;42.20;;;;;;5036265;28;20112;-53
2022/09/17 12:38:53;;;;;;;1.13;0.30;;;24.30;42.00;;;;;;5045098;28;20479;-54
2022/09/17 12:41:35;;;;;;;2.05;0.50;;;24.30;41.70;;;;;;5036632;28;20032;-52
2022/09/17 12:44:38;;;;;;;2.30;0.50;;;24.40;41.60;;;;;;5032580;28;20024;-55
2022/09/17 12:47:22;;;;;;;0.93;0.30;;;24.50;41.40;;;;;;5038126;28;20095;-56
2022/09/17 12:50:14;;;;;;;;;;;24.50;41.20;;;;;;5031118;28;20038;-54
2022/09/17 12:53:17;;;;;;;0.60;0.28;;;24.50;41.10;;;;;;5037855;28;20224;-52
2022/09/17 12:56:02;;;;;;;1.90;0.50;;;24.50;40.80;;;;;;5032516;28;20143;-50
2022/09/17 12:58:36;;;;;;;3.03;0.40;;;24.60;40.80;;;;;;5035784;28;20452;-52
2022/09/17 13:01:30;;;;;;;0.98;0.30;;;24.60;40.80;;;;;;5036522;28;20043;-54
2022/09/17 13:04:16;;;;;;;1.13;0.40;;;24.70;40.70;;;;;;5031900;28;20039;-57
2022/09/17 13:06:54;;;;;;;2.33;0.50;;;24.70;40.50;;;;;;5031086;28;20046;-57
2022/09/17 13:09:41;;;;;;;2.10;0.38;;;24.70;40.50;;;;;;5035709;28;20044;-55
2022/09/17 13:12:11;;;;;;;1.00;0.50;;;24.70;40.40;;;;;;5033988;28;20040;-58
2022/09/17 13:14:55;;;;;;;2.60;0.50;;;24.70;40.30;;;;;;5042067;28;20030;-54
2022/09/17 13:17:38;;;;;;;1.63;0.40;;;24.80;40.20;;;;;;5039245;28;20036;-53
2022/09/17 13:20:20;;;;;;;4.97;0.50;;;24.90;40.20;;;;;;5036838;28;20036;-56